»·PEaware :: CGXAR KLGB-KSNA

CGXAR :: KLGB-KSNA

FLIGHT INFORMATION

Flight Status: Arrived
Operator: Unknown
More flights by this operator :: More flights under this callsign
Pilot: Anonymous 30260 (30260)
Aircraft: SOCATA TBM-900
(TBM9)
More flights by this aircraft type
Origin: KLGB Long Beach
United States
Destination: KSNA John Wayne-Orange Co
United States
More flights between these airports :: More routes between these airports
Route: +SLI
File this flight plan on PilotEdge
Remarks:
Altitude:
(Current/Filed)
5,000ft
Speed:
(Current/Filed)
200kts
Departed: 05-Jul-20 02:57 PM
Arrived: 05-Jul-20 03:21 PM
Distance/Time
Traveled:
17nm/0:24
Distance/Time
To Go:
Arrived

Flight Plot

Page will automatically refresh every two minutes.


Map Options




Map Legend


Flown Route
Filed Route
Departure Airport
Arrival Airport
Navaid (VOR, NDB)
Fix

Horizontal Profiles

Position Reports

Time Latitude Longitude Heading Altitude Ground
Speed
05-Jul-20 14:26 33.812351 -118.152916 88 40ft 0kts
05-Jul-20 14:27 33.812351 -118.152916 88 40ft 0kts
05-Jul-20 14:28 33.812351 -118.152916 88 40ft 0kts
05-Jul-20 14:29 33.812351 -118.152916 88 40ft 0kts
05-Jul-20 14:30 33.812351 -118.152916 88 40ft 0kts
05-Jul-20 14:31 33.812351 -118.152916 88 40ft 0kts
05-Jul-20 14:32 33.812351 -118.152916 88 40ft 0kts
05-Jul-20 14:33 33.812351 -118.152916 88 40ft 0kts
05-Jul-20 14:34 33.812351 -118.152916 88 40ft 0kts
05-Jul-20 14:35 33.812351 -118.152916 88 40ft 0kts
05-Jul-20 14:36 33.812351 -118.152916 88 40ft 0kts
05-Jul-20 14:37 33.812351 -118.152916 88 40ft 0kts
05-Jul-20 14:38 33.812351 -118.152916 88 40ft 0kts
05-Jul-20 14:39 33.812351 -118.152916 88 40ft 0kts
05-Jul-20 14:40 33.812351 -118.152916 88 40ft 0kts
05-Jul-20 14:41 33.812351 -118.152916 88 40ft 0kts
05-Jul-20 14:42 33.812351 -118.152916 88 40ft 0kts
05-Jul-20 14:43 33.812351 -118.152916 88 40ft 0kts
05-Jul-20 14:44 33.812351 -118.152916 88 40ft 0kts
05-Jul-20 14:45 33.812351 -118.152916 88 40ft 0kts
05-Jul-20 14:46 33.812351 -118.152916 88 40ft 0kts
05-Jul-20 14:47 33.812297 -118.152687 104 40ft 6kts
05-Jul-20 14:48 33.813091 -118.150326 90 36ft 14kts
05-Jul-20 14:49 33.813088 -118.148672 88 36ft 0kts
05-Jul-20 14:50 33.811660 -118.145626 132 31ft 16kts
05-Jul-20 14:51 33.809490 -118.142954 134 28ft 12kts
05-Jul-20 14:52 33.806971 -118.139909 135 26ft 9kts
05-Jul-20 14:53 33.806433 -118.139074 94 26ft 0kts
05-Jul-20 14:54 33.806433 -118.139070 92 26ft 0kts
05-Jul-20 14:55 33.806768 -118.138483 27 26ft 10kts
05-Jul-20 14:56 33.820275 -118.153338 313 728ft 131kts
05-Jul-20 14:57 33.806742 -118.182718 212 3051ft 149kts
05-Jul-20 14:58 33.767998 -118.209776 211 3014ft 163kts
05-Jul-20 14:59 33.728796 -118.234850 201 3348ft 146kts
05-Jul-20 15:00 33.709339 -118.209785 81 4350ft 147kts
05-Jul-20 15:02 33.717239 -118.151077 81 5036ft 203kts
05-Jul-20 15:03 33.726931 -118.080613 81 5016ft 213kts
05-Jul-20 15:04 33.736659 -118.010815 81 5015ft 210kts
05-Jul-20 15:05 33.746277 -117.940722 81 5013ft 210kts
05-Jul-20 15:06 33.786847 -117.897579 31 4992ft 181kts
05-Jul-20 15:07 33.825578 -117.867623 31 4981ft 154kts
05-Jul-20 15:08 33.860052 -117.840933 31 4983ft 142kts
05-Jul-20 15:09 33.892327 -117.815482 31 4981ft 134kts
05-Jul-20 15:10 33.922530 -117.789467 57 4986ft 138kts
05-Jul-20 15:11 33.919176 -117.745803 129 4588ft 127kts
05-Jul-20 15:12 33.890062 -117.750874 211 3941ft 103kts
05-Jul-20 15:13 33.862039 -117.769578 211 3993ft 121kts
05-Jul-20 15:14 33.833027 -117.789451 211 3991ft 119kts
05-Jul-20 15:15 33.804473 -117.809514 211 3995ft 118kts
05-Jul-20 15:16 33.775504 -117.820787 188 3259ft 99kts
05-Jul-20 15:17 33.746615 -117.825203 190 1613ft 95kts
05-Jul-20 15:17 33.728473 -117.835374 207 1177ft 86kts
05-Jul-20 15:19 33.703705 -117.850999 207 726ft 86kts
05-Jul-20 15:20 33.684077 -117.863528 205 155ft 73kts
05-Jul-20 15:20 33.675469 -117.868876 170 59ft 9kts
05-Jul-20 15:22 33.673863 -117.867505 121 59ft 0kts
05-Jul-20 15:22 33.673863 -117.867505 121 59ft 0kts
05-Jul-20 15:23 33.673863 -117.867505 121 59ft 0kts
05-Jul-20 15:24 33.672410 -117.866781 168 59ft 7kts
05-Jul-20 15:25 33.672074 -117.866921 205 59ft 0kts
05-Jul-20 15:26 33.672074 -117.866921 205 59ft 0kts

Navigation Log

Ident Type
Flight plan parsing failed, navigation log unavailable